Retail Properties Of Ame - A (RPAI) Latest Bloomsberg Price


Mffais Ranking #78 Overall / #7 Industry
Industry: Reit

Number of Companies: 193 (Ranking #854 Overall/#49 Industry)
Inflow: $ 177,037 (K) (Ranking #664 Overall/#35 Industry)
Outflow: $ -60,076 (K)
Mffais Flow: $ 116,961 (K) (Ranking #78 Overall/#7 Industry)


Receive a FREE weekly executive review of stocks moving into the top 10, taking the top industy spot or moving up within their industry. Sent directly to your Inbox every Saturday. Sign up today and get last week's review immediately sent to you.

We value and respect your privacy. Please read our Terms and Conditions which states our firm commitment to your privacy. Your email address will not be shared with a third party, nor will it be sold or used for purposes other than subscription for the weekly review.

Owner CPOR Shares Action Qty Chg Invested (K) Total Current Value (K)
Aew Capital Management L P 2016-09-30 3,978,600 Added More 2,711,300 $ 47,095 $ 69,108
Shinko Asset Management Co Ltd 2016-09-30 6,283,582 Added More 1,557,245 $ 27,049 $ 109,145
V3 Capital Management L P 2016-09-30 4,198,047 Added More 1,070,700 $ 18,598 $ 72,920
Grs Advisors Llc 2016-09-30 670,194 New Holding 670,194 $ 11,641 $ 11,641
Lasalle Investment Management Securities Llc 2016-09-30 8,812,895 Added More 510,593 $ 8,869 $ 153,079
Highbridge Capital Management Llc 2016-09-30 485,000 New Holding 485,000 $ 8,424 $ 8,424
Waterfront Capital Partners Llc 2016-09-30 1,988,250 Added More 341,000 $ 5,923 $ 34,535
Echo Street Capital Management Llc 2016-09-30 1,123,285 Added More 309,173 $ 5,370 $ 19,511
Sei Investments Co 2016-09-30 688,385 Added More 250,488 $ 4,350 $ 11,957
Weiss Multi-Strategy Advisers Llc 2016-09-30 243,416 New Holding 243,416 $ 4,228 $ 4,228
Putnam Investments Llc 2016-09-30 204,586 New Holding 204,586 $ 3,553 $ 3,553
Employees Retirement System Of Texas 2016-09-30 172,500 New Holding 172,500 $ 2,996 $ 2,996
Hgi Capital Management Llc 2016-09-30 170,487 New Holding 170,487 $ 2,961 $ 2,961
State Of New Jersey Common Pension Fund D 2016-09-30 158,500 New Holding 158,500 $ 2,753 $ 2,753
Springbok Capital Management Llc 2016-09-30 128,998 Added More 121,998 $ 2,119 $ 2,240
Quantitative Systematic Strategies Llc 2016-09-30 120,354 New Holding 120,354 $ 2,090 $ 2,090
Schwerin Boyle Capital Management Inc 2016-09-30 111,300 New Holding 111,300 $ 1,933 $ 1,933
Pioneer Investment Management Inc 2016-09-30 148,400 Added More 99,700 $ 1,731 $ 2,577
Denver Investment Advisors Llc 2016-09-30 89,086 New Holding 89,086 $ 1,547 $ 1,547
Ngam Advisors L P 2016-09-30 187,730 Added More 70,896 $ 1,231 $ 3,260
Northern Trust Corp 2016-09-30 2,689,351 Added More 65,972 $ 1,145 $ 46,714
Kempen Capital Management N V 2016-09-30 850,421 Added More 60,741 $ 1,055 $ 14,771
Legal General Group Plc 2016-09-30 648,330 Added More 49,694 $ 863 $ 11,261
Princeton Alpha Management Lp 2016-09-30 45,479 New Holding 45,479 $ 789 $ 789
Guggenheim Capital Llc 2016-09-30 267,502 Added More 45,444 $ 789 $ 4,646
Westpac Banking Corp 2016-09-30 983,664 Added More 38,043 $ 660 $ 17,086
Chicago Equity Partners Llc 2016-09-30 33,855 New Holding 33,855 $ 588 $ 588
Dimensional Fund Advisors Lp 2016-09-30 3,166,718 Added More 30,329 $ 526 $ 55,005
Skandinaviska Enskilda Banken Ab Publ 2016-09-30 199,600 Added More 29,000 $ 503 $ 3,467
Teachers Advisors Inc 2016-09-30 233,253 Added More 22,931 $ 398 $ 4,051
Menta Capital Llc 2016-09-30 22,400 New Holding 22,400 $ 389 $ 389
I G Investment Management Ltd 2016-09-30 91,476 Added More 18,794 $ 326 $ 1,588
Two Sigma Securities Llc 2016-09-30 18,368 New Holding 18,368 $ 319 $ 319
Ladenburg Thalmann Financial Services Inc 2016-09-30 157,411 Added More 16,077 $ 279 $ 2,734
Vision Capital Management Inc 2016-09-30 15,942 New Holding 15,942 $ 276 $ 276
Amica Mutual Insurance Co 2016-09-30 35,984 Added More 15,800 $ 274 $ 625
Rhumbline Advisers 2016-09-30 210,423 Added More 15,260 $ 265 $ 3,655
Girard Partners Ltd 2016-09-30 14,000 New Holding 14,000 $ 243 $ 243
Amica Pension Fund Board Of Trustees 2016-09-30 29,223 Added More 13,500 $ 234 $ 507
First Quadrant L P Ca 2016-09-30 21,640 Added More 12,840 $ 223 $ 375
Mizuho Trust Banking Co Ltd 2016-09-30 58,596 Added More 12,753 $ 221 $ 1,017
Sumitomo Mitsui Asset Management Company Ltd 2016-09-30 11,830 New Holding 11,830 $ 205 $ 205
Next Financial Group Inc 2016-09-30 17,100 Added More 10,800 $ 187 $ 297
Bks Advisors Llc 2016-09-30 138,790 Added More 9,750 $ 169 $ 2,410
Cornerstone Capital Management Holdings Llc 2016-09-30 148,268 Added More 8,752 $ 152 $ 2,575
Cubist Systematic Strategies Llc 2016-09-30 19,511 Added More 7,852 $ 136 $ 338
Tlp Group Llc 2016-09-30 6,585 New Holding 6,585 $ 114 $ 114
Sii Investments Inc Wi 2016-09-30 36,665 Added More 6,332 $ 109 $ 636
Gsa Capital Partners Llp 2016-09-30 45,817 Added More 6,291 $ 109 $ 795
New York State Teachers Retirement System 2016-09-30 6,300 Added More 6,100 $ 105 $ 109
Rational Advisors Llc 2016-09-30 5,800 New Holding 5,800 $ 100 $ 100
Kbc Group Nv 2016-09-30 94,124 Added More 5,423 $ 94 $ 1,634
National Planning Corp 2016-09-30 23,414 Added More 4,854 $ 84 $ 406
California State Teachers Retirement System 2016-09-30 521,295 Added More 4,500 $ 78 $ 9,054
Raymond James Financial Services Advisors Inc 2016-09-30 39,763 Added More 4,484 $ 77 $ 690
Blackrock Investment Management Llc 2016-09-30 303,934 Added More 4,082 $ 70 $ 5,279
Commonwealth Equity Services Inc 2016-09-30 265,953 Added More 2,737 $ 47 $ 4,619
Pacer Advisors Inc 2016-09-30 26,178 Added More 2,707 $ 47 $ 454
Cwm Llc 2016-09-30 6,261 Added More 2,208 $ 38 $ 108
Amica Retiree Medical Trust 2016-09-30 4,458 Added More 2,050 $ 35 $ 77
Cutler Group Lp 2016-09-30 2,000 New Holding 2,000 $ 34 $ 34
M T Bank Corp 2016-09-30 35,175 Added More 1,978 $ 34 $ 610
Bokf Na 2016-09-30 26,506 Added More 1,365 $ 23 $ 460
Nomura Asset Management Co Ltd 2016-09-30 149,890 Added More 1,300 $ 22 $ 2,603
State Of Alaska Department Of Revenue 2016-09-30 124,380 Added More 1,250 $ 21 $ 2,160
Arete Wealth Advisors Llc 2016-09-30 35,799 Added More 1,167 $ 20 $ 621
Zurcher Kantonalbank Zurich Cantonalbank 2016-09-30 14,011 Added More 863 $ 14 $ 243
Cadence Capital Management Llc 2016-09-30 12,358 Added More 690 $ 11 $ 214
Fifth Third Bancorp 2016-09-30 24,183 Added More 676 $ 11 $ 420
Advisory Services Network Llc 2016-09-30 2,079 Added More 669 $ 11 $ 36
Highpoint Advisor Group Llc 2016-09-30 121,335 Added More 631 $ 10 $ 2,107
Aperio Group Llc 2016-09-30 24,885 Added More 368 $ 6 $ 432
Tower Research Capital Llc Trc 2016-09-30 1,434 Added More 299 $ 5 $ 24
Wfg Advisors Lp 2016-09-30 3,471 Added More 33 $ 0 $ 60
Northwestern Mutual Wealth Management Co 2016-09-30 1 New Holding 1 $ 0 $ 0
New Mexico Educational Retirement Board 2016-09-30 33,700 No Change 0 $ 0 $ 585
Pnc Financial Services Group Inc 2016-09-30 3,004 No Change 0 $ 0 $ 52
Cfo4life L P 2016-09-30 30,344 No Change 0 $ 0 $ 527
Mitsubishi Ufj Kokusai Asset Management Co Ltd 2016-09-30 38,730 No Change 0 $ 0 $ 672
Concorde Asset Management Llc 2016-09-30 12,764 No Change 0 $ 0 $ 221
Teachers Insurance Annuity Association Of America 2016-09-30 253,341 No Change 0 $ 0 $ 4,400
Qs Investors Llc 2016-09-30 20 No Change 0 $ 0 $ 0
Argentus Capital Management Llc 2016-09-30 0 New Holding 0 $ 0 $ 0
Central Trust Co 2016-09-30 2,533 No Change 0 $ 0 $ 43
Oshaughnessy Asset Management Llc 2016-09-30 707 No Change 0 $ 0 $ 12
Parkwood Llc 2016-09-30 31,033 No Change 0 $ 0 $ 539
Assetmark Inc 2016-09-30 900 No Change 0 $ 0 $ 15
Kcm Investment Advisors Llc 2016-09-30 27,393 No Change 0 $ 0 $ 475
Smith Asset Management Group Lp 2016-09-30 311 No Change 0 $ 0 $ 5
Bessemer Group Inc 2016-09-30 1,180 No Change 0 $ 0 $ 20
Mai Capital Management 2016-09-30 27,824 No Change 0 $ 0 $ 483
Peoples United Financial Inc 2016-09-30 852 No Change 0 $ 0 $ 14
Private Asset Management Inc 2016-09-30 53,694 No Change 0 $ 0 $ 932
Mosaic Family Wealth Llc 2016-09-30 300 No Change 0 $ 0 $ 5
Nn Investment Partners Holdings N V 2016-09-30 56,500 No Change 0 $ 0 $ 981
Cribstone Capital Management Llc 2016-09-30 300 No Change 0 $ 0 $ 5
Bronfman E L Rothschild L P 2016-09-30 60 No Change 0 $ 0 $ 1
Krilogy Financial Llc 2016-09-30 2,772 No Change 0 $ 0 $ 48
Wealthtrust-Arizona Llc 2016-09-30 5,544 No Change 0 $ 0 $ 96
Plante Moran Financial Advisors Llc 2016-09-30 2,062 No Change 0 $ 0 $ 35
Investors Capital Advisory Services 2016-06-30 16,958 No Change 0 $ 0 $ 286
Quadrant Capital Group Llc 2016-09-30 342 No Change 0 $ 0 $ 5
Us Bancorp De 2016-09-30 608 No Change 0 $ 0 $ 10
Commonwealth Financial Services Llc 2016-09-30 552 No Change 0 $ 0 $ 9
Independent Order Of Foresters 2016-09-30 50,314 No Change 0 $ 0 $ 873
Creative Planning 2016-09-30 7,420 No Change 0 $ 0 $ 128
Kistler-Tiffany Companies Llc 2016-09-30 2,256 No Change 0 $ 0 $ 39
Gradient Investments Llc 2016-09-30 2,056 No Change 0 $ 0 $ 35
Sequoia Financial Advisors Llc 2016-09-30 12,114 No Change 0 $ 0 $ 210
Capital Investment Advisors Llc 2016-09-30 15,288 No Change 0 $ 0 $ 265
Ftb Advisors Inc 2016-09-30 1,132 No Change 0 $ 0 $ 19
Thompson Davis Co Inc 2016-09-30 117 Sold Some -44 $ -0 $ 2
Sigma Planning Corp 2016-09-30 21,574 Sold Some -99 $ -1 $ 374
National Asset Management Inc 2016-09-30 10,599 Sold Some -199 $ -3 $ 184
Utah Retirement Systems 2016-09-30 59,683 Sold Some -200 $ -3 $ 1,036
Profund Advisors Llc 2016-09-30 13,965 Sold Some -215 $ -3 $ 242
Kanaly Trust Co 2016-09-30 602 Sold Some -345 $ -5 $ 10
Thrivent Financial For Lutherans 2016-09-30 264,460 Sold Some -350 $ -6 $ 4,593
Globeflex Capital L P 2016-09-30 118,640 Sold Some -475 $ -8 $ 2,060
Foresters Investment Management Company Inc 2016-09-30 25,208 Sold Some -500 $ -8 $ 437
American International Group Inc 2016-09-30 7,370 Sold Some -578 $ -10 $ 128
Independent Portfolio Consultants Inc 2016-09-30 10,175 Sold Some -590 $ -10 $ 176
Hightower Advisors Llc 2016-09-30 18,116 Sold Some -595 $ -10 $ 314
Cetera Advisors Llc 2016-09-30 37,139 Sold Some -600 $ -10 $ 645
Blackrock Japan Co Ltd 2016-09-30 11,706 Sold Some -781 $ -13 $ 203
Eii Capital Management Inc 2016-09-30 573,700 Sold Some -1,000 $ -17 $ 9,965
Ibm Retirement Fund 2016-09-30 22,986 Sold Some -1,002 $ -17 $ 399
Hanson Mcclain Inc 2016-06-30 2,481 Sold Some -1,080 $ -18 $ 41
Penserra Capital Management Llc 2016-09-30 0 Sold All -1,575 $ -27 $ 0
Point72 Asia Hong Kong Ltd 2016-09-30 0 Sold All -2,000 $ -34 $ 0
Koshinski Asset Management Inc 2016-09-30 65,964 Sold Some -2,000 $ -34 $ 1,145
Colony Group Llc 2016-09-30 124,398 Sold Some -2,015 $ -35 $ 2,160
Mufg Americas Holdings Corp 2016-09-30 0 Sold All -2,832 $ -49 $ 0
Checchi Capital Advisers Llc 2016-09-30 0 Sold All -3,335 $ -57 $ 0
Strs Ohio 2016-09-30 350,773 Sold Some -3,992 $ -69 $ 6,092
United Capital Financial Advisers Llc 2016-09-30 58,909 Sold Some -4,008 $ -69 $ 1,023
Msi Financial Services Inc 2016-09-30 18,453 Sold Some -4,310 $ -74 $ 320
Invictus Rg 2016-09-30 21,393 Sold Some -4,869 $ -84 $ 371
Advisor Group Inc 2016-09-30 75,567 Sold Some -5,011 $ -87 $ 1,312
Private Advisor Group Llc 2016-09-30 60,815 Sold Some -5,212 $ -90 $ 1,056
Panagora Asset Management Inc 2016-09-30 607,215 Sold Some -6,220 $ -108 $ 10,547
Quantbot Technologies Lp 2016-09-30 0 Sold All -6,640 $ -115 $ 0
Teacher Retirement System Of Texas 2016-09-30 326,019 Sold Some -6,695 $ -116 $ 5,662
Vsr Financial Services Inc 2016-06-30 50,514 Sold Some -7,207 $ -121 $ 853
Sumitomo Mitsui Trust Holdings Inc 2016-09-30 168,566 Sold Some -8,015 $ -139 $ 2,927
Proshare Advisors Llc 2016-09-30 53,574 Sold Some -8,224 $ -142 $ 930
Meeder Asset Management Inc 2016-09-30 0 Sold All -8,982 $ -156 $ 0
Timber Hill Llc 2016-09-30 0 Sold All -10,295 $ -178 $ 0
Madden Advisory Services Inc 2016-09-30 0 Sold All -10,310 $ -179 $ 0
Rafferty Asset Management Llc 2016-09-30 15,252 Sold Some -10,331 $ -179 $ 264
Blair William Co Il 2016-09-30 0 Sold All -10,742 $ -186 $ 0
Stifel Financial Corp 2016-09-30 0 Sold All -10,824 $ -188 $ 0
Bailard Inc 2016-09-30 20,000 Sold Some -13,000 $ -225 $ 347
Hancock Holding Co 2016-09-30 0 Sold All -13,460 $ -233 $ 0
Swiss National Bank 2016-09-30 381,574 Sold Some -13,600 $ -236 $ 6,627
Amp Capital Investors Ltd 2016-09-30 82,778 Sold Some -13,665 $ -237 $ 1,437
Dynamic Technology Lab Private Ltd 2016-09-30 0 Sold All -14,802 $ -257 $ 0
Kcg Holdings Inc 2016-09-30 0 Sold All -14,882 $ -258 $ 0
Ifp Advisors Inc 2016-09-30 45,281 Sold Some -15,737 $ -273 $ 786
Diam Co Ltd 2016-09-30 494,140 Sold Some -16,260 $ -282 $ 8,583
Barings Llc 2016-09-30 0 Sold All -16,700 $ -290 $ 0
Cambridge Investment Research Advisors Inc 2016-09-30 169,184 Sold Some -16,707 $ -290 $ 2,938
Raymond James Associates 2016-09-30 0 Sold All -16,717 $ -290 $ 0
Hsbc Holdings Plc 2016-09-30 35,878 Sold Some -16,991 $ -295 $ 623
Connor Clark Lunn Investment Management Ltd 2016-09-30 0 Sold All -17,600 $ -305 $ 0
Chartwell Investment Partners Llc 2016-09-30 82,320 Sold Some -18,225 $ -316 $ 1,429
Stevens Capital Management Lp 2016-09-30 0 Sold All -18,697 $ -324 $ 0
Verition Fund Management Llc 2016-09-30 0 Sold All -20,964 $ -364 $ 0
Tudor Investment Corp Et Al 2016-09-30 0 Sold All -21,622 $ -375 $ 0
Tfs Capital Llc 2016-09-30 0 Sold All -23,057 $ -400 $ 0
Blackrock Inc 2016-09-30 739,082 Sold Some -25,238 $ -438 $ 12,837
Sabal Trust Co 2016-09-30 0 Sold All -25,944 $ -450 $ 0
Envestnet Asset Management Inc 2016-09-30 2,242 Sold Some -28,246 $ -490 $ 38
Secor Capital Advisors Lp 2016-09-30 0 Sold All -28,691 $ -498 $ 0
Forward Management Llc 2016-09-30 0 Sold All -30,000 $ -521 $ 0
Parametric Portfolio Associates Llc 2016-09-30 180,325 Sold Some -31,304 $ -543 $ 3,132
Fox Run Management L L C 2016-09-30 0 Sold All -35,800 $ -621 $ 0
Green Street Investors Llc 2016-09-30 110,400 Sold Some -35,900 $ -623 $ 1,917
Clarivest Asset Management Llc 2016-09-30 74,700 Sold Some -36,000 $ -625 $ 1,297
Heitman Real Estate Securities Llc 2016-09-30 3,278,269 Sold Some -45,821 $ -795 $ 56,943
Sg Americas Securities Llc 2016-09-30 34,618 Sold Some -47,686 $ -828 $ 601
Capital Fund Management S A 2016-09-30 254,376 Sold Some -59,400 $ -1,031 $ 4,418
New York State Common Retirement Fund 2016-09-30 503,200 Sold Some -63,800 $ -1,108 $ 8,740
Quadrature Capital Ltd 2016-09-30 0 Sold All -76,325 $ -1,325 $ 0
Picton Mahoney Asset Management 2016-09-30 0 Sold All -77,000 $ -1,337 $ 0
Landscape Capital Management L L C 2016-09-30 331,800 Sold Some -79,200 $ -1,375 $ 5,763
A R T Advisors Llc 2016-09-30 0 Sold All -100,110 $ -1,738 $ 0
Walleye Trading Llc 2016-09-30 11,358 Sold Some -106,775 $ -1,854 $ 197
Land Buildings Investment Management Llc 2016-09-30 0 Sold All -183,015 $ -3,178 $ 0
Emerald Acquisition Ltd 2016-09-30 426,443 Sold Some -222,823 $ -3,870 $ 7,407
Rothschild Asset Management Inc 2016-09-30 90,297 Sold Some -232,436 $ -4,037 $ 1,568
Goodwin Daniel L 2016-09-30 9,966,845 Sold Some -393,864 $ -6,841 $ 173,124
Nuveen Asset Management Llc 2016-09-30 156,454 Sold Some -1,036,492 $ -18,003 $ 2,717